createdAt,value
2022-07-31T00:00:45.484Z,17.10
2022-07-31T00:01:47.633Z,17.10
2022-07-31T00:02:50.855Z,17.10
2022-07-31T00:03:53.415Z,17.10
2022-07-31T00:04:56.942Z,17.10
2022-07-31T00:05:58.985Z,17.10
2022-07-31T00:07:02.909Z,17.10
2022-07-31T00:08:07.036Z,17.10
2022-07-31T00:09:48.822Z,17.10
2022-07-31T00:10:33.529Z,17.10
2022-07-31T00:11:36.792Z,17.00
2022-07-31T00:12:38.827Z,17.00
2022-07-31T00:13:56.540Z,17.00
2022-07-31T00:15:01.880Z,17.10
2022-07-31T00:16:04.550Z,17.00
2022-07-31T00:17:07.714Z,17.00
2022-07-31T00:18:09.791Z,17.00
2022-07-31T00:19:12.912Z,17.00
2022-07-31T00:20:16.988Z,17.00
2022-07-31T00:21:20.458Z,17.00
2022-07-31T00:22:22.826Z,17.00
2022-07-31T00:23:27.255Z,17.00
2022-07-31T00:24:30.209Z,17.00
2022-07-31T00:25:33.414Z,16.90
2022-07-31T00:26:35.399Z,16.90
2022-07-31T00:27:38.532Z,16.90
2022-07-31T00:28:40.522Z,16.90
2022-07-31T00:29:43.759Z,16.90
2022-07-31T00:30:45.907Z,16.90
2022-07-31T00:31:49.244Z,16.80
2022-07-31T00:32:51.918Z,16.80
2022-07-31T00:33:55.090Z,16.80
2022-07-31T00:34:57.251Z,16.80
2022-07-31T00:36:00.315Z,16.80
2022-07-31T00:37:02.951Z,16.80
2022-07-31T00:38:26.219Z,16.80
2022-07-31T00:39:32.601Z,16.70
2022-07-31T00:40:34.848Z,16.70
2022-07-31T00:41:42.380Z,16.70
2022-07-31T00:42:44.799Z,16.70
2022-07-31T00:43:47.840Z,16.70
2022-07-31T00:44:50.700Z,16.70
2022-07-31T00:45:59.195Z,16.70
2022-07-31T00:47:01.901Z,16.70
2022-07-31T00:48:06.046Z,16.70
2022-07-31T00:49:10.425Z,16.70
2022-07-31T00:50:14.316Z,16.70
2022-07-31T00:51:17.217Z,16.60
2022-07-31T00:52:20.647Z,16.60
2022-07-31T00:53:22.766Z,16.60
2022-07-31T00:54:26.110Z,16.60
2022-07-31T00:55:29.905Z,16.60
2022-07-31T00:56:32.956Z,16.60
2022-07-31T00:57:35.238Z,16.60
2022-07-31T00:58:38.707Z,16.60
2022-07-31T00:59:41.206Z,16.60
2022-07-31T01:00:44.263Z,16.60
2022-07-31T01:01:47.581Z,16.60
2022-07-31T01:02:50.813Z,16.60
2022-07-31T01:03:54.430Z,16.60
2022-07-31T01:04:56.502Z,16.60
2022-07-31T01:05:59.861Z,16.60
2022-07-31T01:07:02.681Z,16.60
2022-07-31T01:08:06.655Z,16.60
2022-07-31T01:09:08.853Z,16.60
2022-07-31T01:10:15.283Z,16.50
2022-07-31T01:11:24.829Z,16.50
2022-07-31T01:12:34.585Z,16.50
2022-07-31T01:13:47.680Z,16.50
2022-07-31T01:14:54.257Z,16.50
2022-07-31T01:15:59.427Z,16.50
2022-07-31T01:17:03.515Z,16.40
2022-07-31T01:18:09.159Z,16.40
2022-07-31T01:19:23.267Z,16.40
2022-07-31T01:20:44.613Z,16.40
2022-07-31T01:21:56.063Z,16.40
2022-07-31T01:23:19.391Z,16.40
2022-07-31T01:25:04.855Z,16.40
2022-07-31T01:26:32.945Z,16.40
2022-07-31T01:27:58.264Z,16.30
2022-07-31T01:29:11.022Z,16.30
2022-07-31T01:30:15.314Z,16.30
2022-07-31T01:31:27.144Z,16.30
2022-07-31T01:32:35.923Z,16.30
2022-07-31T01:33:47.377Z,16.30
2022-07-31T01:34:56.048Z,16.30
2022-07-31T01:36:06.753Z,16.30
2022-07-31T01:37:14.956Z,16.30
2022-07-31T01:38:22.342Z,16.20
2022-07-31T01:39:27.142Z,16.30
2022-07-31T01:40:43.092Z,16.20
2022-07-31T01:41:48.319Z,16.30
2022-07-31T01:42:53.891Z,16.20
2022-07-31T01:43:58.719Z,16.20
2022-07-31T01:45:04.002Z,16.10
2022-07-31T01:46:10.110Z,16.10
2022-07-31T01:47:14.221Z,16.10
2022-07-31T01:48:17.301Z,16.10
2022-07-31T01:49:21.530Z,16.10
2022-07-31T01:50:42.633Z,16.10
2022-07-31T01:51:48.059Z,16.10
2022-07-31T01:52:52.867Z,16.00
2022-07-31T01:53:56.228Z,16.00
2022-07-31T01:55:00.598Z,15.90
2022-07-31T01:56:04.495Z,15.90
2022-07-31T01:57:17.193Z,15.90
2022-07-31T01:58:25.610Z,15.90
2022-07-31T01:59:31.617Z,15.90
2022-07-31T02:00:49.636Z,15.90
2022-07-31T02:01:54.649Z,15.80
2022-07-31T02:02:58.714Z,15.80
2022-07-31T02:04:14.135Z,15.80
2022-07-31T02:05:19.931Z,15.80
2022-07-31T02:06:24.419Z,15.90
2022-07-31T02:07:27.283Z,15.80
2022-07-31T02:08:32.886Z,15.80
2022-07-31T02:09:36.577Z,15.80
2022-07-31T02:10:40.656Z,15.80
2022-07-31T02:11:53.235Z,15.80
2022-07-31T02:12:58.373Z,15.80
2022-07-31T02:14:02.283Z,15.80
2022-07-31T02:15:09.784Z,15.80
2022-07-31T02:16:19.214Z,15.70
2022-07-31T02:17:24.240Z,15.70
2022-07-31T02:19:00.526Z,15.70
2022-07-31T02:20:06.142Z,15.70
2022-07-31T02:21:09.614Z,15.70
2022-07-31T02:22:13.108Z,15.70
2022-07-31T02:23:16.256Z,15.60
2022-07-31T02:24:19.050Z,15.70
2022-07-31T02:25:22.167Z,15.60
2022-07-31T02:26:27.625Z,15.70
2022-07-31T02:27:56.212Z,15.60
2022-07-31T02:28:54.547Z,15.70
2022-07-31T02:30:00.414Z,15.60
2022-07-31T02:31:04.157Z,15.70
2022-07-31T02:32:10.121Z,15.70
2022-07-31T02:33:16.473Z,15.60
2022-07-31T02:34:21.063Z,15.60
2022-07-31T02:35:32.073Z,15.60
2022-07-31T02:36:36.247Z,15.60
2022-07-31T02:37:40.018Z,15.60
2022-07-31T02:38:44.544Z,15.60
2022-07-31T02:39:49.308Z,15.60
2022-07-31T02:40:54.740Z,15.60
2022-07-31T02:42:01.226Z,15.60
2022-07-31T02:43:05.422Z,15.60
2022-07-31T02:44:12.596Z,15.50
2022-07-31T02:45:15.421Z,15.50
2022-07-31T02:46:19.925Z,15.50
2022-07-31T02:47:24.393Z,15.50
2022-07-31T02:48:28.143Z,15.50
2022-07-31T02:49:34.589Z,15.50
2022-07-31T02:50:39.266Z,15.40
2022-07-31T02:51:42.692Z,15.40
2022-07-31T02:52:47.329Z,15.40
2022-07-31T02:53:49.828Z,15.40
2022-07-31T02:54:57.060Z,15.40
2022-07-31T02:56:04.179Z,15.40
2022-07-31T02:57:09.890Z,15.30
2022-07-31T02:58:12.247Z,15.30
2022-07-31T02:59:16.006Z,15.40
2022-07-31T03:00:34.283Z,15.30
2022-07-31T03:01:38.808Z,15.30
2022-07-31T03:02:43.336Z,15.30
2022-07-31T03:03:46.864Z,15.30
2022-07-31T03:04:49.076Z,15.30
2022-07-31T03:05:52.260Z,15.30
2022-07-31T03:06:54.713Z,15.30
2022-07-31T03:07:57.889Z,15.30
2022-07-31T03:09:00.084Z,15.30
2022-07-31T03:10:03.441Z,15.30
2022-07-31T03:11:18.227Z,15.30
2022-07-31T03:12:24.939Z,15.30
2022-07-31T03:13:31.003Z,15.30
2022-07-31T03:14:35.361Z,15.30
2022-07-31T03:15:40.999Z,15.30
2022-07-31T03:16:44.776Z,15.30
2022-07-31T03:17:50.142Z,15.20
2022-07-31T03:18:59.366Z,15.20
2022-07-31T03:20:01.465Z,15.20
2022-07-31T03:21:05.340Z,15.20
2022-07-31T03:22:12.237Z,15.20
2022-07-31T03:23:22.178Z,15.20
2022-07-31T03:24:30.731Z,15.20
2022-07-31T03:25:34.586Z,15.20
2022-07-31T03:26:36.904Z,15.20
2022-07-31T03:27:40.485Z,15.20
2022-07-31T03:28:44.179Z,15.20
2022-07-31T03:29:46.330Z,15.20
2022-07-31T03:30:55.173Z,15.30
2022-07-31T03:32:01.508Z,15.30
2022-07-31T03:33:07.568Z,15.30
2022-07-31T03:34:14.820Z,15.40
2022-07-31T03:35:18.145Z,15.30
2022-07-31T03:36:21.296Z,15.40
2022-07-31T03:37:24.499Z,15.40
2022-07-31T03:38:39.253Z,15.40
2022-07-31T03:39:53.606Z,15.40
2022-07-31T03:40:56.116Z,15.40
2022-07-31T03:42:00.422Z,15.40
2022-07-31T03:43:03.402Z,15.40
2022-07-31T03:44:07.311Z,15.40
2022-07-31T03:45:12.297Z,15.50
2022-07-31T03:46:17.161Z,15.40
2022-07-31T03:47:19.485Z,15.50
2022-07-31T03:48:24.045Z,15.40
2022-07-31T03:49:27.848Z,15.40
2022-07-31T03:50:31.581Z,15.40
2022-07-31T03:51:34.275Z,15.40
2022-07-31T03:52:38.154Z,15.50
2022-07-31T03:53:41.234Z,15.40
2022-07-31T03:54:44.810Z,15.50
2022-07-31T03:55:51.826Z,15.50
2022-07-31T03:56:57.782Z,15.50
2022-07-31T03:58:01.823Z,15.50
2022-07-31T03:59:04.606Z,15.50
2022-07-31T04:00:16.845Z,15.50
2022-07-31T04:01:20.970Z,15.60
2022-07-31T04:02:27.232Z,15.60
2022-07-31T04:03:40.795Z,15.60
2022-07-31T04:04:57.319Z,15.60
2022-07-31T04:06:00.593Z,15.60
2022-07-31T04:07:03.329Z,15.60
2022-07-31T04:08:07.101Z,15.70
2022-07-31T04:09:15.497Z,15.70
2022-07-31T04:10:22.828Z,15.60
2022-07-31T04:11:25.238Z,15.60
2022-07-31T04:12:28.324Z,15.60
2022-07-31T04:13:30.398Z,15.60
2022-07-31T04:14:33.677Z,15.60
2022-07-31T04:15:35.703Z,15.60
2022-07-31T04:16:38.865Z,15.60
2022-07-31T04:17:40.984Z,15.60
2022-07-31T04:18:50.647Z,15.50
2022-07-31T04:19:53.196Z,15.50
2022-07-31T04:20:56.394Z,15.60
2022-07-31T04:21:59.016Z,15.50
2022-07-31T04:23:03.896Z,15.60
2022-07-31T04:24:42.930Z,15.50
2022-07-31T04:26:05.051Z,15.60
2022-07-31T04:27:17.473Z,15.60
2022-07-31T04:28:20.796Z,15.60
2022-07-31T04:29:23.090Z,15.60
2022-07-31T04:30:26.141Z,15.60
2022-07-31T04:31:28.815Z,15.60
2022-07-31T04:32:31.994Z,15.60
2022-07-31T04:33:48.865Z,15.50
2022-07-31T04:34:56.065Z,15.60
2022-07-31T04:35:58.049Z,15.60
2022-07-31T04:37:01.537Z,15.60
2022-07-31T04:38:03.727Z,15.60
2022-07-31T04:39:11.092Z,15.70
2022-07-31T04:40:13.476Z,15.70
2022-07-31T04:41:17.425Z,15.70
2022-07-31T04:42:20.850Z,15.80
2022-07-31T04:43:24.101Z,15.90
2022-07-31T04:44:26.190Z,15.80
2022-07-31T04:45:31.885Z,15.80
2022-07-31T04:46:34.011Z,15.90
2022-07-31T04:47:37.149Z,15.90
2022-07-31T04:48:41.397Z,16.00
2022-07-31T04:49:47.010Z,16.00
2022-07-31T04:50:53.249Z,16.00
2022-07-31T04:51:56.613Z,16.10
2022-07-31T04:52:59.403Z,16.10
2022-07-31T04:54:08.245Z,16.10
2022-07-31T04:55:11.544Z,16.10
2022-07-31T04:56:32.806Z,16.10
2022-07-31T04:57:36.198Z,16.10
2022-07-31T04:58:38.342Z,16.20
2022-07-31T04:59:59.241Z,16.30
2022-07-31T05:01:02.173Z,16.30
2022-07-31T05:02:07.435Z,16.40
2022-07-31T05:03:10.889Z,16.40
2022-07-31T05:04:14.484Z,16.40
2022-07-31T05:05:19.378Z,16.50
2022-07-31T05:06:33.317Z,16.60
2022-07-31T05:07:36.492Z,16.60
2022-07-31T05:08:46.266Z,16.70
2022-07-31T05:09:49.314Z,16.70
2022-07-31T05:11:09.957Z,16.80
2022-07-31T05:12:13.410Z,16.80
2022-07-31T05:13:16.330Z,16.90
2022-07-31T05:14:21.839Z,16.90
2022-07-31T05:15:24.234Z,17.00
2022-07-31T05:16:28.829Z,17.00
2022-07-31T05:17:31.449Z,17.00
2022-07-31T05:18:52.622Z,17.00
2022-07-31T05:20:14.261Z,17.00
2022-07-31T05:21:27.358Z,17.10
2022-07-31T05:22:49.088Z,17.10
2022-07-31T05:24:33.573Z,17.10
2022-07-31T05:25:44.899Z,17.20
2022-07-31T05:26:48.160Z,17.30
2022-07-31T05:27:50.708Z,17.30
2022-07-31T05:28:58.437Z,17.30
2022-07-31T05:30:02.452Z,17.30
2022-07-31T05:31:07.157Z,17.40
2022-07-31T05:32:10.682Z,17.40
2022-07-31T05:33:13.379Z,17.40
2022-07-31T05:34:19.786Z,17.50
2022-07-31T05:35:22.226Z,17.50
2022-07-31T05:36:25.727Z,17.50
2022-07-31T05:37:29.463Z,17.50
2022-07-31T05:38:36.023Z,17.60
2022-07-31T05:40:06.189Z,17.60
2022-07-31T05:41:29.685Z,17.70
2022-07-31T05:42:59.346Z,17.80
2022-07-31T05:44:18.079Z,17.80
2022-07-31T05:45:23.019Z,17.90
2022-07-31T05:46:26.308Z,18.00
2022-07-31T05:47:40.667Z,18.00
2022-07-31T05:48:45.036Z,18.10
2022-07-31T05:49:47.444Z,18.10
2022-07-31T05:50:51.835Z,18.20
2022-07-31T05:51:54.518Z,18.20
2022-07-31T05:52:59.473Z,18.30
2022-07-31T05:54:21.323Z,18.40
2022-07-31T05:55:44.751Z,18.40
2022-07-31T05:56:57.246Z,18.50
2022-07-31T05:58:07.142Z,18.50
2022-07-31T05:59:10.973Z,18.50
2022-07-31T06:00:16.351Z,18.50
2022-07-31T06:01:21.111Z,18.60
2022-07-31T06:02:23.529Z,18.70
2022-07-31T06:03:52.009Z,18.70
2022-07-31T06:04:57.564Z,18.80
2022-07-31T06:06:00.630Z,18.80
2022-07-31T06:07:02.849Z,18.90
2022-07-31T06:08:09.649Z,19.00
2022-07-31T06:09:16.277Z,19.20
2022-07-31T06:10:21.678Z,19.20
2022-07-31T06:11:25.042Z,19.40
2022-07-31T06:12:27.392Z,19.50
2022-07-31T06:13:31.171Z,19.60
2022-07-31T06:14:43.521Z,19.80
2022-07-31T06:15:56.962Z,20.00
2022-07-31T06:16:59.088Z,20.20
2022-07-31T06:18:04.186Z,20.40
2022-07-31T06:19:06.914Z,20.70
2022-07-31T06:20:12.478Z,21.10
2022-07-31T06:22:17.034Z,21.70
2022-07-31T06:23:29.566Z,21.90
2022-07-31T06:24:45.422Z,22.10
2022-07-31T06:25:49.263Z,22.60
2022-07-31T06:26:52.551Z,22.90
2022-07-31T06:27:59.277Z,23.20
2022-07-31T06:29:02.369Z,23.60
2022-07-31T06:30:06.910Z,23.90
2022-07-31T06:31:10.176Z,24.10
2022-07-31T06:32:12.350Z,24.20
2022-07-31T06:33:20.163Z,24.40
2022-07-31T06:34:38.007Z,24.60
2022-07-31T06:35:41.733Z,24.80
2022-07-31T06:37:12.070Z,25.10
2022-07-31T06:38:15.591Z,25.10
2022-07-31T06:39:55.429Z,25.10
2022-07-31T06:41:32.078Z,25.10
2022-07-31T06:42:55.031Z,25.30
2022-07-31T06:44:20.543Z,25.60
2022-07-31T06:45:51.433Z,25.80
2022-07-31T06:47:22.693Z,25.90
2022-07-31T06:48:44.496Z,26.20
2022-07-31T06:49:48.830Z,26.50
2022-07-31T06:50:54.245Z,26.70
2022-07-31T06:52:12.297Z,27.00
2022-07-31T06:53:15.747Z,27.30
2022-07-31T06:54:18.206Z,27.40
2022-07-31T06:55:22.749Z,27.60
2022-07-31T06:56:25.497Z,27.80
2022-07-31T06:57:28.674Z,27.90
2022-07-31T06:58:32.574Z,28.00
2022-07-31T06:59:39.274Z,27.80
2022-07-31T07:00:43.878Z,27.90
2022-07-31T07:01:46.136Z,27.90
2022-07-31T07:02:49.577Z,27.70
2022-07-31T07:03:52.182Z,27.80
2022-07-31T07:05:04.900Z,27.80
2022-07-31T07:06:10.339Z,27.90
2022-07-31T07:07:13.895Z,28.10
2022-07-31T07:08:16.486Z,28.10
2022-07-31T07:09:22.169Z,28.30
2022-07-31T07:10:26.878Z,28.60
2022-07-31T07:11:35.055Z,28.90
2022-07-31T07:12:38.251Z,29.10
2022-07-31T07:13:45.755Z,29.20
2022-07-31T07:14:50.937Z,29.00
2022-07-31T07:15:54.378Z,28.90
2022-07-31T07:17:03.725Z,28.90
2022-07-31T07:18:07.267Z,29.00
2022-07-31T07:19:23.843Z,29.00
2022-07-31T07:20:25.924Z,29.00
2022-07-31T07:21:28.993Z,28.90
2022-07-31T07:22:32.793Z,28.90
2022-07-31T07:23:38.078Z,29.00
2022-07-31T07:24:59.710Z,29.40
2022-07-31T07:26:03.951Z,29.60
2022-07-31T07:27:07.487Z,29.80
2022-07-31T07:28:15.111Z,29.70
2022-07-31T07:29:33.823Z,29.70
2022-07-31T07:30:36.460Z,29.50
2022-07-31T07:31:40.538Z,29.30
2022-07-31T07:32:42.663Z,29.50
2022-07-31T07:33:47.948Z,29.60
2022-07-31T07:34:59.820Z,29.70
2022-07-31T07:36:26.879Z,29.80
2022-07-31T07:37:38.943Z,30.10
2022-07-31T07:38:41.868Z,30.00
2022-07-31T07:39:45.059Z,30.10
2022-07-31T07:40:47.664Z,30.10
2022-07-31T07:41:53.143Z,30.30
2022-07-31T07:42:57.859Z,30.00
2022-07-31T07:44:05.012Z,29.90
2022-07-31T07:45:09.252Z,30.30
2022-07-31T07:46:11.629Z,30.30
2022-07-31T07:47:18.008Z,30.40
2022-07-31T07:48:20.343Z,30.50
2022-07-31T07:49:42.259Z,30.60
2022-07-31T07:51:08.191Z,30.80
2022-07-31T07:52:28.967Z,31.10
2022-07-31T07:53:53.948Z,31.30
2022-07-31T07:55:15.793Z,31.30
2022-07-31T07:56:37.496Z,31.50
2022-07-31T07:57:47.223Z,31.40
2022-07-31T07:59:15.013Z,31.30
2022-07-31T08:00:37.080Z,31.10
2022-07-31T08:01:39.922Z,30.80
2022-07-31T08:03:02.715Z,30.80
2022-07-31T08:04:17.975Z,31.20
2022-07-31T08:05:20.525Z,31.10
2022-07-31T08:06:24.335Z,31.10
2022-07-31T08:07:41.565Z,31.20
2022-07-31T08:09:06.124Z,31.20
2022-07-31T08:10:28.325Z,30.80
2022-07-31T08:11:44.949Z,30.40
2022-07-31T08:12:58.394Z,30.40
2022-07-31T08:14:01.537Z,30.50
2022-07-31T08:15:35.153Z,30.40
2022-07-31T08:16:54.244Z,29.90
2022-07-31T08:17:56.699Z,30.00
2022-07-31T08:18:59.839Z,30.10
2022-07-31T08:20:02.163Z,30.10
2022-07-31T08:21:05.498Z,30.00
2022-07-31T08:22:08.977Z,29.80
2022-07-31T08:23:11.789Z,29.50
2022-07-31T08:24:21.503Z,29.40
2022-07-31T08:25:23.761Z,29.40
2022-07-31T08:26:48.421Z,29.50
2022-07-31T08:27:51.708Z,29.50
2022-07-31T08:28:58.666Z,29.90
2022-07-31T08:30:08.962Z,30.20
2022-07-31T08:31:12.405Z,30.50
2022-07-31T08:32:32.547Z,30.70
2022-07-31T08:33:39.008Z,31.00
2022-07-31T08:34:42.222Z,31.10
2022-07-31T08:35:50.527Z,31.20
2022-07-31T08:36:53.565Z,31.20
2022-07-31T08:38:03.308Z,31.10
2022-07-31T08:39:21.120Z,31.30
2022-07-31T08:40:42.994Z,31.50
2022-07-31T08:41:46.075Z,31.50
2022-07-31T08:42:49.393Z,31.60
2022-07-31T08:44:03.288Z,31.60
2022-07-31T08:45:10.332Z,31.70
2022-07-31T08:46:21.366Z,31.70
2022-07-31T08:47:26.232Z,31.30
2022-07-31T08:48:33.014Z,31.10
2022-07-31T08:49:40.347Z,30.80
2022-07-31T08:50:52.075Z,30.60
2022-07-31T08:52:28.437Z,30.50
2022-07-31T08:53:40.249Z,30.00
2022-07-31T08:54:52.510Z,29.80
2022-07-31T08:55:57.690Z,29.70
2022-07-31T08:57:06.265Z,29.70
2022-07-31T08:58:19.214Z,29.70
2022-07-31T08:59:23.183Z,29.60
2022-07-31T09:00:28.859Z,29.50
2022-07-31T09:01:34.174Z,29.50
2022-07-31T09:02:41.012Z,29.40
2022-07-31T09:04:03.244Z,29.30
2022-07-31T09:05:06.616Z,29.20
2022-07-31T09:06:11.138Z,29.20
2022-07-31T09:07:15.373Z,29.30
2022-07-31T09:08:24.408Z,29.10
2022-07-31T09:09:51.656Z,29.10
2022-07-31T09:11:03.266Z,29.10
2022-07-31T09:12:12.400Z,28.90
2022-07-31T09:14:01.484Z,28.80
2022-07-31T09:15:37.435Z,28.70
2022-07-31T09:16:49.256Z,28.80
2022-07-31T09:17:59.495Z,28.70
2022-07-31T09:19:53.958Z,28.60
2022-07-31T09:20:29.785Z,28.50
2022-07-31T09:21:40.029Z,28.40
2022-07-31T09:22:43.087Z,28.30
2022-07-31T09:23:49.262Z,28.20
2022-07-31T09:24:53.185Z,28.20
2022-07-31T09:25:57.181Z,28.20
2022-07-31T09:27:05.951Z,28.20
2022-07-31T09:28:11.015Z,28.30
2022-07-31T09:29:13.567Z,28.30
2022-07-31T09:30:17.368Z,28.30
2022-07-31T09:31:40.428Z,28.30
2022-07-31T09:33:21.751Z,28.30
2022-07-31T09:34:36.315Z,28.20
2022-07-31T09:35:50.396Z,28.10
2022-07-31T09:36:52.526Z,28.00
2022-07-31T09:38:33.819Z,27.80
2022-07-31T09:39:55.648Z,27.90
2022-07-31T09:41:55.830Z,27.90
2022-07-31T09:42:55.204Z,27.90
2022-07-31T09:44:02.815Z,27.90
2022-07-31T09:45:19.717Z,28.00
2022-07-31T09:46:22.230Z,28.00
2022-07-31T09:47:30.091Z,28.00
2022-07-31T09:48:37.065Z,28.00
2022-07-31T09:49:40.074Z,27.90
2022-07-31T09:50:53.836Z,27.80
2022-07-31T09:51:55.994Z,27.60
2022-07-31T09:53:01.330Z,27.60
2022-07-31T09:54:05.688Z,27.60
2022-07-31T09:55:32.005Z,27.70
2022-07-31T09:56:35.862Z,27.80
2022-07-31T09:57:41.375Z,27.90
2022-07-31T09:58:52.657Z,27.90
2022-07-31T09:59:57.018Z,28.00
2022-07-31T10:01:01.069Z,27.90
2022-07-31T10:02:07.888Z,27.90
2022-07-31T10:03:14.974Z,27.90
2022-07-31T10:04:18.949Z,27.90
2022-07-31T10:05:24.980Z,27.90
2022-07-31T10:06:33.209Z,28.00
2022-07-31T10:07:39.147Z,28.00
2022-07-31T10:08:53.535Z,27.90
2022-07-31T10:10:02.072Z,27.90
2022-07-31T10:11:25.247Z,27.90
2022-07-31T10:12:50.565Z,27.80
2022-07-31T10:13:56.497Z,27.90
2022-07-31T10:15:06.660Z,27.90
2022-07-31T10:16:09.376Z,27.90
2022-07-31T10:17:39.618Z,27.80
2022-07-31T10:19:12.176Z,27.70
2022-07-31T10:20:38.887Z,27.70
2022-07-31T10:22:01.675Z,27.70
2022-07-31T10:23:12.177Z,27.60
2022-07-31T10:24:15.030Z,27.50
2022-07-31T10:25:22.674Z,27.40
2022-07-31T10:26:44.513Z,27.40
2022-07-31T10:27:48.934Z,27.30
2022-07-31T10:28:53.004Z,27.30
2022-07-31T10:29:57.226Z,27.40
2022-07-31T10:31:01.574Z,27.50
2022-07-31T10:32:06.035Z,27.50
2022-07-31T10:33:40.684Z,27.40
2022-07-31T10:34:55.897Z,27.30
2022-07-31T10:36:22.458Z,27.10
2022-07-31T10:38:12.822Z,27.00
2022-07-31T10:39:46.748Z,26.90
2022-07-31T10:41:20.666Z,27.00
2022-07-31T10:42:35.894Z,27.10
2022-07-31T10:43:46.817Z,27.10
2022-07-31T10:45:11.090Z,27.10
2022-07-31T10:46:29.434Z,27.10
2022-07-31T10:48:00.616Z,27.10
2022-07-31T10:49:41.529Z,27.10
2022-07-31T10:51:10.203Z,26.90
2022-07-31T10:52:37.163Z,26.80
2022-07-31T10:53:56.812Z,26.70
2022-07-31T10:55:23.271Z,26.60
2022-07-31T10:56:53.062Z,26.40
2022-07-31T10:58:20.760Z,26.30
2022-07-31T10:59:29.195Z,26.30
2022-07-31T11:00:46.498Z,26.30
2022-07-31T11:02:02.794Z,26.30
2022-07-31T11:03:16.327Z,26.30
2022-07-31T11:04:39.457Z,26.30
2022-07-31T11:06:02.188Z,26.40
2022-07-31T11:07:27.907Z,26.50
2022-07-31T11:08:52.470Z,26.70
2022-07-31T11:10:16.540Z,26.70
2022-07-31T11:11:38.813Z,26.80
2022-07-31T11:13:00.813Z,26.90
2022-07-31T11:14:32.959Z,27.00
2022-07-31T11:16:04.926Z,27.00
2022-07-31T11:18:22.388Z,26.90
2022-07-31T11:19:17.432Z,26.80
2022-07-31T11:20:22.202Z,26.60
2022-07-31T11:21:40.266Z,26.60
2022-07-31T11:22:53.199Z,26.50
2022-07-31T11:24:03.174Z,26.40
2022-07-31T11:25:07.691Z,26.40
2022-07-31T11:26:11.858Z,26.40
2022-07-31T11:27:13.958Z,26.40
2022-07-31T11:28:23.648Z,26.50
2022-07-31T11:30:00.249Z,26.60
2022-07-31T11:30:54.099Z,26.60
2022-07-31T11:32:00.374Z,26.70
2022-07-31T11:33:04.511Z,26.70
2022-07-31T11:34:06.761Z,26.70
2022-07-31T11:35:10.066Z,26.70
2022-07-31T11:36:15.020Z,26.70
2022-07-31T11:37:20.588Z,26.80
2022-07-31T11:38:28.834Z,26.80
2022-07-31T11:39:37.241Z,26.80
2022-07-31T11:40:40.541Z,26.80
2022-07-31T11:41:45.731Z,26.80
2022-07-31T11:42:59.761Z,26.80
2022-07-31T11:44:09.664Z,26.80
2022-07-31T11:45:16.825Z,26.70
2022-07-31T11:46:26.173Z,26.70
2022-07-31T11:48:12.361Z,26.60
2022-07-31T11:49:03.071Z,26.60
2022-07-31T11:50:06.402Z,26.60
2022-07-31T11:51:09.494Z,26.60
2022-07-31T11:52:31.264Z,26.60
2022-07-31T11:53:43.761Z,26.60
2022-07-31T11:54:45.846Z,26.70
2022-07-31T11:55:50.707Z,26.90
2022-07-31T11:56:53.978Z,26.90
2022-07-31T11:57:58.018Z,27.00
2022-07-31T11:59:01.030Z,27.10
2022-07-31T12:00:27.295Z,27.20
2022-07-31T12:01:31.296Z,27.30
2022-07-31T12:02:33.489Z,27.40
2022-07-31T12:03:40.003Z,27.40
2022-07-31T12:04:42.256Z,27.50
2022-07-31T12:05:46.606Z,27.50
2022-07-31T12:06:59.167Z,27.50
2022-07-31T12:08:01.679Z,27.50
2022-07-31T12:09:06.859Z,27.50
2022-07-31T12:10:11.733Z,27.60
2022-07-31T12:11:15.847Z,27.60
2022-07-31T12:12:19.129Z,27.60
2022-07-31T12:13:23.710Z,27.60
2022-07-31T12:14:30.869Z,27.50
2022-07-31T12:15:34.296Z,27.40
2022-07-31T12:16:41.952Z,27.40
2022-07-31T12:17:44.931Z,27.30
2022-07-31T12:18:51.152Z,27.30
2022-07-31T12:19:57.783Z,27.30
2022-07-31T12:21:05.922Z,27.30
2022-07-31T12:22:16.465Z,27.20
2022-07-31T12:23:38.460Z,27.20
2022-07-31T12:24:44.460Z,27.10
2022-07-31T12:25:46.581Z,27.10
2022-07-31T12:26:52.061Z,27.10
2022-07-31T12:27:54.820Z,27.10
2022-07-31T12:28:59.237Z,27.00
2022-07-31T12:30:11.921Z,27.10
2022-07-31T12:31:14.945Z,27.10
2022-07-31T12:32:26.682Z,27.10
2022-07-31T12:33:40.817Z,27.10
2022-07-31T12:34:46.944Z,27.10
2022-07-31T12:35:55.943Z,27.10
2022-07-31T12:37:02.567Z,27.10
2022-07-31T12:38:36.790Z,27.20
2022-07-31T12:39:47.852Z,27.20
2022-07-31T12:41:07.984Z,27.30
2022-07-31T12:42:31.241Z,27.40
2022-07-31T12:43:35.931Z,27.40
2022-07-31T12:44:51.024Z,27.50
2022-07-31T12:46:00.445Z,27.50
2022-07-31T12:47:11.096Z,27.50
2022-07-31T12:48:14.497Z,27.50
2022-07-31T12:49:19.563Z,27.50
2022-07-31T12:50:23.143Z,27.60
2022-07-31T12:51:45.111Z,27.60
2022-07-31T12:52:51.978Z,27.50
2022-07-31T12:53:54.995Z,27.40
2022-07-31T12:54:57.576Z,27.30
2022-07-31T12:56:00.637Z,27.30
2022-07-31T12:57:04.754Z,27.30
2022-07-31T12:58:08.942Z,27.20
2022-07-31T12:59:14.160Z,27.20
2022-07-31T13:00:19.382Z,27.20
2022-07-31T13:01:22.501Z,27.10
2022-07-31T13:02:29.732Z,27.10
2022-07-31T13:03:46.135Z,27.00
2022-07-31T13:04:52.971Z,27.00
2022-07-31T13:05:56.706Z,26.90
2022-07-31T13:07:03.325Z,26.80
2022-07-31T13:08:09.003Z,26.80
2022-07-31T13:09:13.094Z,26.80
2022-07-31T13:10:23.731Z,26.70
2022-07-31T13:11:45.574Z,26.70
2022-07-31T13:12:54.459Z,26.70
2022-07-31T13:14:01.368Z,26.60
2022-07-31T13:15:05.341Z,26.60
2022-07-31T13:16:08.113Z,26.60
2022-07-31T13:17:15.608Z,26.50
2022-07-31T13:18:20.828Z,26.50
2022-07-31T13:19:26.680Z,26.50
2022-07-31T13:20:31.541Z,26.50
2022-07-31T13:21:49.245Z,26.50
2022-07-31T13:22:55.149Z,26.50
2022-07-31T13:23:58.243Z,26.40
2022-07-31T13:25:03.158Z,26.40
2022-07-31T13:26:05.817Z,26.50
2022-07-31T13:27:10.157Z,26.50
2022-07-31T13:28:15.857Z,26.50
2022-07-31T13:29:21.112Z,26.50
2022-07-31T13:30:24.352Z,26.60
2022-07-31T13:31:29.840Z,26.60
2022-07-31T13:32:32.877Z,26.60
2022-07-31T13:33:37.097Z,26.70
2022-07-31T13:34:40.614Z,26.70
2022-07-31T13:35:45.305Z,26.80
2022-07-31T13:36:48.494Z,26.80
2022-07-31T13:37:53.338Z,26.90
2022-07-31T13:38:56.075Z,27.00
2022-07-31T13:40:00.393Z,27.00
2022-07-31T13:41:21.404Z,27.10
2022-07-31T13:42:29.781Z,27.20
2022-07-31T13:43:34.305Z,27.30
2022-07-31T13:44:45.677Z,27.30
2022-07-31T13:45:50.511Z,27.40
2022-07-31T13:46:54.293Z,27.40
2022-07-31T13:48:00.500Z,27.40
2022-07-31T13:49:09.252Z,27.40
2022-07-31T13:50:16.857Z,27.40
2022-07-31T13:51:24.797Z,27.40
2022-07-31T13:52:36.102Z,27.40
2022-07-31T13:53:39.930Z,27.30
2022-07-31T13:54:47.399Z,27.40
2022-07-31T13:55:55.099Z,27.50
2022-07-31T13:56:59.384Z,27.50
2022-07-31T13:58:02.390Z,27.50
2022-07-31T13:59:11.998Z,27.60
2022-07-31T14:00:17.229Z,27.80
2022-07-31T14:01:22.072Z,27.90
2022-07-31T14:02:26.407Z,27.90
2022-07-31T14:03:30.748Z,28.00
2022-07-31T14:04:39.349Z,28.00
2022-07-31T14:05:47.689Z,27.90
2022-07-31T14:06:54.240Z,28.00
2022-07-31T14:08:30.571Z,28.00
2022-07-31T14:09:26.400Z,28.10
2022-07-31T14:10:32.211Z,28.10
2022-07-31T14:11:37.040Z,28.10
2022-07-31T14:12:40.550Z,28.20
2022-07-31T14:13:44.048Z,28.40
2022-07-31T14:14:48.783Z,28.40
2022-07-31T14:15:51.620Z,28.40
2022-07-31T14:16:57.571Z,28.50
2022-07-31T14:18:01.021Z,28.50
2022-07-31T14:19:06.290Z,28.50
2022-07-31T14:20:11.102Z,28.50
2022-07-31T14:21:16.662Z,28.40
2022-07-31T14:22:20.111Z,28.30
2022-07-31T14:23:34.191Z,28.40
2022-07-31T14:24:38.720Z,28.40
2022-07-31T14:25:42.002Z,28.40
2022-07-31T14:26:45.338Z,28.50
2022-07-31T14:27:50.230Z,28.60
2022-07-31T14:28:53.729Z,28.60
2022-07-31T14:29:57.282Z,28.50
2022-07-31T14:31:01.469Z,28.50
2022-07-31T14:32:33.432Z,28.50
2022-07-31T14:33:40.048Z,28.40
2022-07-31T14:34:42.434Z,28.30
2022-07-31T14:35:45.740Z,28.20
2022-07-31T14:36:56.938Z,28.20
2022-07-31T14:38:03.997Z,28.30
2022-07-31T14:39:07.662Z,28.20
2022-07-31T14:40:11.437Z,28.20
2022-07-31T14:41:14.515Z,28.20
2022-07-31T14:42:22.239Z,28.20
2022-07-31T14:43:29.977Z,28.20
2022-07-31T14:44:32.029Z,28.20
2022-07-31T14:45:42.909Z,28.20
2022-07-31T14:46:57.588Z,28.20
2022-07-31T14:47:59.746Z,28.30